Flight Track Log - Related Links

Times and Time Zones

All times are in EDT time to prevent confusion due to time zone crossing. See the AAL1326 flight status page for this flight to view local times or setup timezone preferences in your user account.

Time Position Orientation Groundspeed Altitude Reporting Facility
EDT Latitude Longitude Course Direction KTS MPH feet Rate Location/Type
Sat 04:41:00 PM 39.4884 -94.4693 41° Northeast  Level FlightAware Approximate
Sat 04:41:22 PM 39.1820 -94.7100 41° Northeast 252 290 6,000  Level FlightAware ADS-B
Sat 04:41:27 PM 39.1790 -94.7030 119° Southeast 252 290 6,100 2,160 Climbing FlightAware ADS-B
Sat 04:41:47 PM 39.1750 -94.6670 98° East 300 345 6,900 3,240 Climbing FlightAware ADS-B
Sat 04:42:17 PM 39.1850 -94.6120 77° East 308 354 8,800 3,600 Climbing FlightAware ADS-B
Sat 04:42:57 PM 39.2250 -94.5600 45° Northeast 310 357 11,100 2,850 Climbing FlightAware ADS-B
Sat 04:43:37 PM 39.2750 -94.5150 35° Northeast 347 399 12,600 2,471 Climbing FlightAware ADS-B
Sat 04:44:22 PM 39.3390 -94.4670 30° Northeast 377 434 14,600 3,035 Climbing FlightAware ADS-B
Sat 04:45:02 PM 39.4030 -94.4220 29° Northeast 389 448 16,900 3,825 Climbing FlightAware ADS-B
Sat 04:45:42 PM 39.4620 -94.3750 32° Northeast 379 436 19,700 3,318 Climbing FlightAware ADS-B
Sat 04:46:27 PM 39.5340 -94.3190 31° Northeast 399 459 21,600 2,541 Climbing FlightAware ADS-B
Sat 04:47:07 PM 39.5910 -94.2540 41° Northeast 421 484 23,300 2,329 Climbing FlightAware ADS-B
Sat 04:47:52 PM 39.6350 -94.1580 59° Northeast 443 510 24,900 2,047 Climbing FlightAware ADS-B
Sat 04:48:32 PM 39.6700 -94.0570 66° East 460 529 26,200 2,325 Climbing FlightAware ADS-B
Sat 04:49:12 PM 39.7050 -93.9550 66° East 460 529 28,000 3,035 Climbing FlightAware ADS-B
Sat 04:49:57 PM 39.7440 -93.8430 66° East 439 505 30,500 2,118 Climbing FlightAware ADS-B
Sat 04:50:37 PM 39.7770 -93.7490 65° Northeast 426 490 31,000 353 Climbing FlightAware ADS-B
Sat 04:51:22 PM 39.8220 -93.6570 57° Northeast 414 476 31,000  Level FlightAware ADS-B
Sat 04:52:02 PM 39.8730 -93.5800 49° Northeast 413 475 31,000  Level FlightAware ADS-B
Sat 04:52:42 PM 39.9230 -93.5070 48° Northeast 410 472 31,000  Level FlightAware ADS-B
Sat 04:53:27 PM 39.9900 -93.4410 37° Northeast 392 451 31,000  Level FlightAware ADS-B
Sat 04:54:07 PM 40.0580 -93.4130 17° North 376 433 31,000  Level FlightAware ADS-B
Sat 04:54:52 PM 40.1330 -93.3930 12° North 377 434 31,000  Level FlightAware ADS-B
Sat 04:55:22 PM 40.1840 -93.3790 12° North 376 433 31,000  Level FlightAware ADS-B
Sat 04:56:07 PM 40.2510 -93.3600 12° North 376 433 31,000  Level FlightAware ADS-B
Sat 04:57:07 PM 40.3530 -93.3170 18° North 380 437 31,000  Level FlightAware ADS-B
Sat 04:57:47 PM 40.4090 -93.2880 22° Northeast 380 437 31,000  Level FlightAware ADS-B
Sat 04:58:07 PM 40.4050 -93.1660 92° East 434 499 31,000  Level FlightAware ADS-B
Sat 04:59:02 PM 40.4010 -93.0260 92° East 438 504 31,000  Level FlightAware ADS-B
Sat 04:59:42 PM 40.3960 -92.9120 93° East 440 506 31,000  Level FlightAware ADS-B
Sat 05:00:27 PM 40.3910 -92.8010 93° East 442 509 31,000  Level FlightAware ADS-B
Sat 05:01:22 PM 40.3970 -92.6460 87° East 441 507 31,000  Level FlightAware ADS-B
Sat 05:02:17 PM 40.4160 -92.5030 80° East 443 510 31,000  Level FlightAware ADS-B
Sat 05:02:57 PM 40.4290 -92.4070 80° East 444 511 31,000  Level FlightAware ADS-B
Sat 05:03:42 PM 40.4450 -92.2830 80° East 442 509 31,000  Level FlightAware ADS-B
Sat 05:04:17 PM 40.4560 -92.1890 81° East 442 509 31,000  Level FlightAware ADS-B
Sat 05:05:22 PM 40.4770 -92.0240 80° East 442 509 31,000  Level FlightAware ADS-B
Sat 05:05:57 PM 40.4900 -91.9250 80° East 440 506 31,000  Level FlightAware ADS-B
Sat 05:06:42 PM 40.5040 -91.8110 81° East 440 506 31,000  Level FlightAware ADS-B
Sat 05:07:27 PM 40.5190 -91.6900 81° East 441 507 31,000  Level FlightAware ADS-B
Sat 05:08:07 PM 40.5320 -91.5810 81° East 442 509 31,000  Level FlightAware ADS-B
Sat 05:08:52 PM 40.5450 -91.4710 81° East 442 509 31,000  Level FlightAware ADS-B
Sat 05:09:32 PM 40.5700 -91.3540 74° East 432 497 31,000  Level FlightAware ADS-B
Sat 05:10:12 PM 40.6020 -91.2630 65° Northeast 432 497 31,000  Level FlightAware ADS-B
Sat 05:10:57 PM 40.6390 -91.1550 66° East 431 496 31,000  Level FlightAware ADS-B
Sat 05:11:37 PM 40.6720 -91.0570 66° East 432 497 31,000  Level FlightAware ADS-B
Sat 05:12:22 PM 40.7080 -90.9510 66° East 434 499 31,000  Level FlightAware ADS-B
Sat 05:13:17 PM 40.7540 -90.8160 66° East 435 501 31,000  Level FlightAware ADS-B
Sat 05:13:57 PM 40.7840 -90.7260 66° East 435 501 31,000  Level FlightAware ADS-B
Sat 05:14:42 PM 40.8220 -90.6130 66° East 436 502 31,000  Level FlightAware ADS-B
Sat 05:15:22 PM 40.8550 -90.5160 66° East 439 505 31,000  Level FlightAware ADS-B
Sat 05:16:07 PM 40.8930 -90.4000 67° East 442 509 31,000  Level FlightAware ADS-B
Sat 05:16:47 PM 40.9240 -90.3070 66° East 443 510 31,000  Level FlightAware ADS-B
Sat 05:17:27 PM 40.9590 -90.2020 66° East 443 510 31,000 -776 Level FlightAware ADS-B
Sat 05:18:12 PM 40.9930 -90.0990 66° East 440 506 29,900 -1,906 Descending FlightAware ADS-B
Sat 05:18:52 PM 41.0260 -89.9980 67° East 441 507 28,300 -2,541 Descending FlightAware ADS-B
Sat 05:19:37 PM 41.0630 -89.8850 66° East 445 512 26,300 -2,700 Descending FlightAware ADS-B
Sat 05:20:12 PM 41.0930 -89.7950 66° East 449 517 24,700 -1,840 Descending FlightAware ADS-B
Sat 05:20:52 PM 41.1250 -89.6960 67° East 445 512 24,000 -667 Descending FlightAware ADS-B
Sat 05:21:42 PM 41.1670 -89.5690 66° East 445 512 23,700 -1,133 Descending FlightAware ADS-B
Sat 05:22:22 PM 41.2060 -89.4750 61° Northeast 444 511 22,300 -2,047 Descending FlightAware ADS-B
Sat 05:23:07 PM 41.2480 -89.3710 62° Northeast 444 511 20,800 -2,175 Descending FlightAware ADS-B
Sat 05:23:42 PM 41.2840 -89.2800 62° Northeast 436 502 19,400 -2,100 Descending FlightAware ADS-B
Sat 05:24:27 PM 41.3240 -89.1820 61° Northeast 430 495 18,000 -2,000 Descending FlightAware ADS-B
Sat 05:25:12 PM 41.3650 -89.0780 62° Northeast 419 482 16,400 -2,047 Descending FlightAware ADS-B
Sat 05:25:52 PM 41.4020 -88.9850 62° Northeast 415 478 15,100 -1,976 Descending FlightAware ADS-B
Sat 05:26:37 PM 41.4410 -88.8880 62° Northeast 407 468 13,600 -1,950 Descending FlightAware ADS-B
Sat 05:27:12 PM 41.4730 -88.8080 62° Northeast 395 455 12,500 -1,875 Descending FlightAware ADS-B
Sat 05:27:57 PM 41.5110 -88.7100 63° Northeast 384 442 11,100 -1,000 Descending FlightAware ADS-B
Sat 05:28:42 PM 41.5470 -88.6180 62° Northeast 378 435 11,000 -141 Descending FlightAware ADS-B
Sat 05:29:22 PM 41.5800 -88.5360 62° Northeast 376 433 10,900 -424 Descending FlightAware ADS-B
Sat 05:30:07 PM 41.6190 -88.4500 59° Northeast 370 426 10,400 -635 Descending FlightAware ADS-B
Sat 05:30:47 PM 41.6600 -88.3800 52° Northeast 369 425 10,000 -369 Descending FlightAware ADS-B
Sat 05:31:12 PM 41.6870 -88.3330 52° Northeast 366 421 10,000  Level FlightAware ADS-B
Sat 05:31:52 PM 41.7300 -88.2600 52° Northeast 365 420 10,000  Level FlightAware ADS-B
Sat 05:32:37 PM 41.7770 -88.1780 52° Northeast 362 417 10,000  Level FlightAware ADS-B
Sat 05:33:07 PM 41.8070 -88.1270 52° Northeast 327 376 10,000 -500 Level FlightAware ADS-B
Sat 05:33:37 PM 41.8340 -88.0800 52° Northeast 315 362 9,500 -1,050 Descending FlightAware ADS-B
Sat 05:33:47 PM 41.8420 -88.0640 56° Northeast 312 359 9,300 -1,000 Descending FlightAware ADS-B
Sat 05:34:07 PM 41.8580 -88.0370 51° Northeast 306 352 9,000 -1,100 Descending FlightAware ADS-B
Sat 05:34:47 PM 41.8840 -87.9670 63° Northeast 314 361 8,200 -1,200 Descending FlightAware ADS-B
Sat 05:35:12 PM 41.8850 -87.9270 88° East 308 354 7,700 -1,050 Descending FlightAware ADS-B
Sat 05:35:27 PM 41.8840 -87.8910 92° East 300 345 7,500 -600 Descending FlightAware ADS-B
Sat 05:35:42 PM 41.8840 -87.8690 90° East 292 336 7,400 -400 Descending FlightAware ADS-B
Sat 05:36:12 PM 41.8840 -87.8170 90° East 267 307 7,200 -667 Descending FlightAware ADS-B
Sat 05:36:27 PM 41.8840 -87.7890 90° East 257 296 6,900 -1,309 Descending FlightAware ADS-B
Sat 05:37:07 PM 41.8850 -87.7270 89° East 248 285 6,000 -1,477 Descending FlightAware ADS-B
Sat 05:37:32 PM 41.8880 -87.6890 84° East 239 275 5,300 -1,500 Descending FlightAware ADS-B
Sat 05:37:47 PM 41.8980 -87.6750 46° Northeast 230 265 5,000 -1,400 Descending FlightAware ADS-B
Sat 05:38:02 PM 41.9140 -87.6680 18° North 219 252 4,600 -1,371 Descending FlightAware ADS-B
Sat 05:38:22 PM 41.9310 -87.6670 North 214 246 4,200 -1,350 Descending FlightAware ADS-B
Sat 05:38:42 PM 41.9470 -87.6740 342° North 202 232 3,700 -1,200 Descending FlightAware ADS-B
Sat 05:38:57 PM 41.9550 -87.6870 310° West 196 226 3,500 -764 Descending FlightAware ADS-B
Sat 05:39:37 PM 41.9680 -87.7270 294° West 175 201 3,000 -738 Descending FlightAware ADS-B
Sat 05:40:02 PM 41.9690 -87.7520 273° West 170 196 2,700 -960 Descending FlightAware ADS-B
Sat 05:40:52 PM 41.9690 -87.8050 270° West 133 153 1,800 -943 Descending FlightAware ADS-B
Sat 05:41:12 PM 41.9690 -87.8190 270° West 121 139 1,600 -600 Descending FlightAware ADS-B
Sat 05:42:02 PM 41.9690 -87.8570 270° West 120 138 1,100 -600 Descending FlightAware ADS-B
Sat 05:42:22 PM 41.9690 -87.8720 270° West 124 143 900 -369 Descending FlightAware ADS-B
Sat 05:43:07 PM 41.9690 -87.9040 270° West 121 139 700 -267 Descending FlightAware ADS-B

Login

Don't have an account? Register now (free) for customized features, flight alerts, and more!